Time;durP1;ratioP1;P1;durP2;ratioP2;P2;SDS_P1;SDS_P2;PMS_P1;PMS_P2;Temp;Humidity;BMP_temperature;BMP_pressure;BME280_temperature;BME280_humidity;BME280_pressure;Samples;Min_cycle;Max_cycle;Signal;HPM_P1;HPM_P2
2022/05/13 00:00:56;;;;;;;;;2.50;0.75;;;;;14.32;100.00;101796.19;6249636;22;45251;-86
2022/05/13 00:03:22;;;;;;;;;1.00;1.00;;;;;14.28;100.00;101817.88;6249054;22;45240;-87
2022/05/13 00:05:49;;;;;;;;;1.75;1.75;;;;;14.22;100.00;101805.78;6248528;22;45203;-87
2022/05/13 00:08:15;;;;;;;;;1.25;0.75;;;;;14.18;100.00;101817.63;6221900;22;44761;-84
2022/05/13 00:10:40;;;;;;;;;1.75;0.75;;;;;14.18;100.00;101817.63;6225577;22;46530;-85
2022/05/13 00:13:05;;;;;;;;;2.00;0.00;;;;;14.19;100.00;101816.66;6257589;22;44641;-83
2022/05/13 00:15:31;;;;;;;;;0.00;0.00;;;;;14.18;100.00;101817.63;6256045;22;44689;-84
2022/05/13 00:17:57;;;;;;;;;2.25;0.25;;;;;14.15;100.00;101809.81;6257126;22;45151;-85
2022/05/13 00:20:24;;;;;;;;;1.75;1.75;;;;;14.13;100.00;101799.22;6254959;22;45238;-85
2022/05/13 00:22:55;;;;;;;;;1.20;0.20;;;;;14.09;100.00;101807.53;6252009;22;45195;-85
2022/05/13 00:25:32;;;;;;;;;1.00;1.00;;;;;14.07;100.00;101820.13;6255608;22;44796;-85
2022/05/13 00:28:00;;;;;;;;;0.50;0.50;;;;;14.06;100.00;101813.91;6254026;22;44713;-83
2022/05/13 00:30:28;;;;;;;;;0.20;0.20;;;;;14.02;100.00;101808.88;6255012;22;45043;-85
2022/05/13 00:32:53;;;;;;;;;1.00;1.00;;;;;13.98;100.00;101812.72;6255206;22;44587;-85
2022/05/13 00:35:20;;;;;;;;;1.00;1.00;;;;;13.95;100.00;101813.75;6219734;22;44625;-86
2022/05/13 00:37:46;;;;;;;;;0.00;0.00;;;;;13.92;100.00;101810.41;6246921;22;45132;-84
2022/05/13 00:40:13;;;;;;;;;0.75;0.75;;;;;13.89;100.00;101812.34;6250085;22;45098;-85
2022/05/13 00:42:39;;;;;;;;;0.60;0.60;;;;;13.88;100.00;101801.75;6252475;22;45258;-85
2022/05/13 00:45:06;;;;;;;;;2.75;1.25;;;;;13.89;100.00;101807.00;6256102;22;44728;-83
2022/05/13 00:47:32;;;;;;;;;0.00;0.00;;;;;13.88;100.00;101801.75;6230857;22;44833;-84
2022/05/13 00:50:00;;;;;;;;;1.00;1.00;;;;;13.83;100.00;101801.19;6262260;22;45255;-84
2022/05/13 00:52:27;;;;;;;;;1.00;1.00;;;;;13.81;100.00;101811.97;6231694;22;44638;-84
2022/05/13 00:54:53;;;;;;;;;2.40;0.60;;;;;13.79;100.00;101800.53;6253566;22;44688;-83
2022/05/13 00:57:21;;;;;;;;;0.50;0.50;;;;;13.74;100.00;101799.09;6252300;22;45282;-84
2022/05/13 00:59:49;;;;;;;;;1.80;0.00;;;;;13.72;100.00;101806.34;6222783;22;45868;-85
2022/05/13 01:02:15;;;;;;;;;1.20;0.00;;;;;13.69;100.00;101807.41;6220561;22;45185;-84
2022/05/13 01:04:41;;;;;;;;;0.00;0.00;;;;;13.67;100.00;101798.63;6219601;22;45198;-85
2022/05/13 01:07:13;;;;;;;;;0.00;0.00;;;;;13.69;100.00;101806.56;6220810;22;44905;-85
2022/05/13 01:09:44;;;;;;;;;0.80;0.00;;;;;13.61;100.00;101807.88;6260198;22;44923;-84
2022/05/13 01:12:16;;;;;;;;;0.00;0.00;;;;;13.58;100.00;101801.84;6265488;22;44698;-84
2022/05/13 01:14:49;;;;;;;;;0.60;0.60;;;;;13.56;100.00;101823.31;6237990;22;45207;-85
2022/05/13 01:20:06;;;;;;;;;1.00;1.00;;;;;13.58;100.00;101818.72;6252041;22;45309;-84
2022/05/13 01:22:42;;;;;;;;;2.00;0.60;;;;;13.57;100.00;101816.16;6246892;22;44677;-84
2022/05/13 01:25:09;;;;;;;;;1.00;1.00;;;;;13.53;100.00;101818.16;6255290;22;44696;-84
2022/05/13 01:27:34;;;;;;;;;0.00;0.00;;;;;13.51;100.00;101820.09;6254540;22;44820;-83
2022/05/13 01:29:59;;;;;;;;;1.75;0.00;;;;;13.48;100.00;101817.59;6226765;22;46104;-84
2022/05/13 01:32:25;;;;;;;;;1.00;1.00;;;;;13.51;100.00;101812.06;6251147;22;44741;-85
2022/05/13 01:34:50;;;;;;;;;0.50;0.00;;;;;13.50;100.00;101822.84;6252721;22;45165;-84
2022/05/13 01:37:16;;;;;;;;;0.00;0.00;;;;;13.43;100.00;101821.50;6225817;22;45629;-83
2022/05/13 01:39:42;;;;;;;;;1.25;0.50;;;;;13.38;100.00;101819.13;6254120;22;44855;-83
2022/05/13 01:42:08;;;;;;;;;2.00;0.80;;;;;13.37;100.00;101818.25;6226648;22;44711;-84
2022/05/13 01:44:34;;;;;;;;;1.75;0.00;;;;;13.36;100.00;101831.72;6248657;22;44844;-83
2022/05/13 01:46:59;;;;;;;;;1.00;1.00;;;;;13.33;100.00;101823.88;6249747;22;45444;-83
2022/05/13 01:49:24;;;;;;;;;1.00;1.00;;;;;13.30;100.00;101816.94;6222687;22;46723;-84
2022/05/13 01:51:50;;;;;;;;;1.75;1.00;;;;;13.29;100.00;101827.69;6227876;22;45070;-83
2022/05/13 01:54:15;;;;;;;;;0.00;0.00;;;;;13.22;100.00;101805.84;6226409;22;45342;-82
2022/05/13 01:56:41;;;;;;;;;0.75;0.75;;;;;13.21;100.00;101822.78;6254454;22;44946;-86
2022/05/13 01:59:06;;;;;;;;;2.00;2.00;;;;;13.19;100.00;101815.81;6224689;22;46118;-83
2022/05/13 02:01:31;;;;;;;;;2.00;1.75;;;;;13.16;100.00;101821.38;6250797;22;45368;-83
2022/05/13 02:03:57;;;;;;;;;5.00;0.75;;;;;13.15;100.00;101812.50;6254993;22;45388;-84
2022/05/13 02:06:25;;;;;;;;;2.25;1.50;;;;;13.17;100.00;101815.91;6255806;22;44855;-84
2022/05/13 02:08:53;;;;;;;;;4.75;0.75;;;;;13.17;100.00;101813.25;6257968;22;45343;-81
2022/05/13 02:11:20;;;;;;;;;0.60;0.60;;;;;13.13;100.00;101812.56;6248750;22;45340;-84
2022/05/13 02:13:46;;;;;;;;;4.20;0.80;;;;;13.10;100.00;101807.44;6252809;22;45346;-83
2022/05/13 02:16:13;;;;;;;;;2.00;1.50;;;;;13.11;100.00;101805.63;6252687;22;44867;-82
2022/05/13 02:18:39;;;;;;;;;3.50;1.75;;;;;13.11;100.00;101810.97;6225896;22;47089;-83
2022/05/13 02:21:06;;;;;;;;;1.80;0.40;;;;;13.09;100.00;101812.84;6251634;22;45153;-83
2022/05/13 02:23:32;;;;;;;;;0.80;0.80;;;;;13.08;100.00;101824.47;6256865;22;44807;-84
2022/05/13 02:26:00;;;;;;;;;1.50;1.25;;;;;13.07;100.00;101818.28;6226070;22;44849;-82
2022/05/13 02:28:27;;;;;;;;;2.50;2.50;;;;;13.08;100.00;101820.00;6253868;22;45422;-84
2022/05/13 02:30:53;;;;;;;;;1.20;1.20;;;;;13.07;100.00;101823.63;6228108;22;45365;-84
2022/05/13 02:33:19;;;;;;;;;1.25;1.00;;;;;13.09;100.00;101812.84;6255723;22;45140;-84
2022/05/13 02:35:44;;;;;;;;;1.25;1.25;;;;;13.09;100.00;101828.84;6231120;22;45224;-84
2022/05/13 02:38:14;;;;;;;;;3.00;1.75;;;;;13.07;100.00;101817.44;6231486;22;46954;-83
2022/05/13 02:43:24;;;;;;;;;9.20;1.40;;;;;13.04;100.00;101815.78;6261714;22;44687;-85
2022/05/13 02:45:53;;;;;;;;;5.00;1.25;;;;;13.01;100.00;101823.16;6234950;22;45306;-83
2022/05/13 02:48:18;;;;;;;;;2.60;1.20;;;;;13.00;100.00;101826.72;6229673;22;45127;-84
2022/05/13 02:50:45;;;;;;;;;1.75;1.75;;;;;12.99;100.00;101823.22;6255170;22;45096;-84
2022/05/13 02:53:11;;;;;;;;;4.25;1.50;;;;;13.02;100.00;101823.03;6231695;22;45141;-84
2022/05/13 02:55:38;;;;;;;;;2.00;0.75;;;;;13.07;100.00;101818.28;6232190;22;44780;-85
2022/05/13 02:58:04;;;;;;;;;3.00;1.25;;;;;13.08;100.00;101813.81;6233475;22;45098;-87
2022/05/13 03:00:30;;;;;;;;;2.00;0.00;;;;;13.09;100.00;101820.84;6230313;22;44854;-84
2022/05/13 03:02:56;;;;;;;;;3.60;2.00;;;;;13.11;100.00;101814.50;6260240;22;45296;-85
2022/05/13 03:05:22;;;;;;;;;2.00;2.00;;;;;13.11;100.00;101818.97;6255991;22;44929;-85
2022/05/13 03:07:47;;;;;;;;;3.75;2.25;;;;;13.10;100.00;101820.78;6254299;22;45065;-85
2022/05/13 03:10:14;;;;;;;;;4.25;2.00;;;;;13.08;100.00;101817.31;6255585;22;44691;-86
2022/05/13 03:12:45;;;;;;;;;5.50;1.75;;;;;13.04;100.00;101817.59;6255520;22;44794;-84
2022/05/13 03:15:17;;;;;;;;;4.00;1.50;;;;;12.98;100.00;101817.97;6251392;22;45803;-85
2022/05/13 03:17:44;;;;;;;;;2.00;2.00;;;;;12.91;100.00;101820.16;6255677;22;46239;-84
2022/05/13 03:20:16;;;;;;;;;3.75;2.50;;;;;12.86;100.00;101824.88;6233592;22;44702;-85
2022/05/13 03:22:44;;;;;;;;;5.50;3.25;;;;;12.86;100.00;101817.78;6260755;22;44773;-84
2022/05/13 03:25:10;;;;;;;;;2.25;1.75;;;;;12.85;100.00;101824.03;6233687;22;44777;-85
2022/05/13 03:27:37;;;;;;;;;1.00;1.00;;;;;12.84;100.00;101814.31;6258704;22;46276;-85
2022/05/13 03:30:03;;;;;;;;;4.00;1.00;;;;;12.84;100.00;101816.13;6258040;22;45352;-85
2022/05/13 03:32:31;;;;;;;;;7.50;2.00;;;;;12.85;100.00;101821.34;6260531;22;44802;-85
2022/05/13 03:34:56;;;;;;;;;2.75;0.00;;;;;12.84;100.00;101811.66;6230786;22;44809;-83
2022/05/13 03:37:22;;;;;;;;;1.75;0.75;;;;;12.84;100.00;101824.13;6222924;22;46112;-86
2022/05/13 03:39:49;;;;;;;;;2.25;2.25;;;;;12.84;100.00;101810.78;6253616;22;45217;-85
2022/05/13 03:42:15;;;;;;;;;2.60;2.20;;;;;12.84;100.00;101811.66;6260289;22;44820;-87
2022/05/13 03:44:42;;;;;;;;;3.50;1.75;;;;;12.85;100.00;101805.34;6263271;22;44836;-85
2022/05/13 03:47:07;;;;;;;;;2.00;2.00;;;;;12.89;100.00;101814.03;6258876;22;45029;-86
2022/05/13 03:49:33;;;;;;;;;1.25;0.75;;;;;12.92;100.00;101818.34;6232064;22;45322;-85
2022/05/13 03:51:58;;;;;;;;;1.50;0.75;;;;;12.92;100.00;101821.03;6238272;22;44818;-84
2022/05/13 03:54:25;;;;;;;;;5.00;2.50;;;;;12.81;100.00;101825.19;6239254;22;44730;-85
2022/05/13 03:56:52;;;;;;;;;6.00;2.25;;;;;12.83;100.00;101830.41;6235585;22;47040;-85
2022/05/13 03:59:18;;;;;;;;;3.80;3.80;;;;;12.81;100.00;101825.19;6262306;22;44674;-86
2022/05/13 04:01:43;;;;;;;;;3.00;3.00;;;;;12.78;100.00;101829.81;6229567;22;45338;-85
2022/05/13 04:04:09;;;;;;;;;3.00;3.00;;;;;12.79;100.00;101829.72;6258321;22;44913;-86
2022/05/13 04:09:19;;;;;;;;;3.00;2.00;;;;;12.72;100.00;101835.53;6258942;22;44744;-85
2022/05/13 04:17:13;;;;;;;;;5.50;3.25;;;;;12.59;100.00;101838.03;6234722;22;45304;-86
2022/05/13 04:19:40;;;;;;;;;6.00;4.00;;;;;12.58;100.00;101839.00;6247443;22;45407;-86
2022/05/13 04:22:06;;;;;;;;;3.50;3.50;;;;;12.55;100.00;101839.16;6228692;22;44792;-86
2022/05/13 04:24:31;;;;;;;;;2.50;2.50;;;;;12.56;100.00;101833.72;6227589;22;44761;-86
2022/05/13 04:26:57;;;;;;;;;3.00;2.25;;;;;12.57;100.00;101835.47;6227177;22;46577;-85
2022/05/13 04:29:22;;;;;;;;;3.75;3.00;;;;;12.59;100.00;101840.69;6225813;22;44916;-85
2022/05/13 04:31:48;;;;;;;;;3.25;2.50;;;;;12.59;100.00;101844.22;6249619;22;45032;-85
2022/05/13 04:34:14;;;;;;;;;4.25;3.50;;;;;12.56;100.00;101844.38;6251244;22;45547;-86
2022/05/13 04:36:41;;;;;;;;;3.75;3.00;;;;;12.59;100.00;101841.56;6250252;22;45231;-85
2022/05/13 04:39:07;;;;;;;;;6.60;2.40;;;;;12.64;100.00;101841.28;6222947;22;45304;-86
2022/05/13 04:44:19;;;;;;;;;2.75;2.75;;;;;12.67;100.00;101850.91;6255437;22;45107;-87
2022/05/13 04:46:45;;;;;;;;;5.75;2.50;;;;;12.73;100.00;101848.75;6252587;22;45043;-86
2022/05/13 04:49:11;;;;;;;;;6.50;5.50;;;;;12.75;100.00;101851.31;6254493;22;44709;-86
2022/05/13 04:51:38;;;;;;;;;5.00;3.75;;;;;12.81;100.00;101857.19;6250819;22;44645;-87
2022/05/13 04:54:05;;;;;;;;;4.25;4.25;;;;;12.89;100.00;101847.84;6258906;22;45487;-86
2022/05/13 04:56:31;;;;;;;;;2.80;1.20;;;;;13.02;100.00;101855.06;6259525;22;45437;-86
2022/05/13 04:58:57;;;;;;;;;4.75;4.50;;;;;13.18;100.00;101851.47;6250228;22;44686;-85
2022/05/13 05:01:44;;;;;;;;;0.00;0.00;;;;;13.30;100.00;101853.44;6247349;22;45153;-88
2022/05/13 05:04:52;;;;;;;;;;;;;;;;;;;;;
2022/05/13 05:07:58;;;;;;;;;8.00;7.00;;;;;13.51;100.00;101861.94;6229115;22;74540;-88
2022/05/13 05:10:30;;;;;;;;;4.60;4.60;;;;;13.55;100.00;101864.34;6216349;22;44825;-86
2022/05/13 05:13:17;;;;;;;;;6.80;2.60;;;;;13.60;100.00;101864.06;6247303;22;44899;-88
2022/05/13 05:16:25;;;;;;;;;0.00;0.00;;;;;13.68;100.00;101867.09;6226473;22;45388;-86
2022/05/13 05:19:03;;;;;;;;;1.75;1.75;;;;;13.74;100.00;101872.06;6194883;22;47280;-87
2022/05/13 05:21:57;;;;;;;;;3.40;3.40;;;;;13.80;100.00;101877.03;6226808;22;45145;-86
2022/05/13 05:24:26;;;;;;;;;3.00;3.00;;;;;13.83;100.00;101884.84;6251211;22;45354;-86
2022/05/13 05:27:02;;;;;;;;;2.00;1.75;;;;;13.97;100.00;101880.44;6254883;22;44822;-85
2022/05/13 05:29:33;;;;;;;;;5.00;4.00;;;;;13.94;100.00;101884.19;6198649;22;45344;-86
2022/05/13 05:32:25;;;;;;;;;3.80;3.80;;;;;13.93;100.00;101886.97;6246688;22;45424;-86
2022/05/13 05:34:55;;;;;;;;;6.00;3.00;;;;;13.98;100.00;101891.06;6219852;22;45172;-85
2022/05/13 05:37:47;;;;;;;;;6.75;4.50;;;;;13.96;100.00;101892.94;6245507;22;45182;-87
2022/05/13 05:41:00;;;;;;;;;6.00;3.80;;;;;14.01;100.00;101895.31;6237312;22;45118;-85
2022/05/13 05:46:36;;;;;;;;;6.80;3.80;;;;;14.16;100.00;101891.69;6124258;23;44913;-86
2022/05/13 05:49:05;;;;;;;;;3.00;3.00;;;;;14.00;100.00;101897.16;6135837;23;44739;-87
2022/05/13 05:51:31;;;;;;;;;4.00;3.00;;;;;14.17;100.00;101900.56;6133550;23;45055;-85
2022/05/13 05:59:25;;;;;;;;;4.40;2.80;;;;;14.64;100.00;101905.56;6134660;23;45307;-87
2022/05/13 06:01:50;;;;;;;;;4.00;3.50;;;;;14.44;100.00;101909.50;6132381;23;46740;-87
2022/05/13 06:04:16;;;;;;;;;6.25;2.50;;;;;14.40;100.00;101903.47;6127321;23;44841;-88
2022/05/13 06:06:41;;;;;;;;;2.25;2.00;;;;;14.57;100.00;101914.94;6125677;23;45197;-87
2022/05/13 06:09:08;;;;;;;;;3.50;2.00;;;;;14.77;100.00;101908.28;6123856;23;44798;-87
2022/05/13 06:11:34;;;;;;;;;5.60;3.60;;;;;14.90;100.00;101917.25;6123325;23;45236;-89
2022/05/13 06:14:00;;;;;;;;;1.25;1.00;;;;;15.20;100.00;101918.81;6149422;23;45226;-87
2022/05/13 06:16:27;;;;;;;;;2.75;2.75;;;;;15.27;100.00;101914.75;6126953;23;44806;-86
2022/05/13 06:18:54;;;;;;;;;2.75;2.75;;;;;15.40;100.00;101921.00;6160320;22;45621;-86
2022/05/13 06:21:20;;;;;;;;;2.20;2.20;;;;;15.25;100.00;101928.25;6251565;22;45053;-87
2022/05/13 06:23:45;;;;;;;;;2.00;2.00;;;;;15.08;100.00;101926.69;6255529;22;44585;-87
2022/05/13 06:26:11;;;;;;;;;3.00;1.50;;;;;15.02;100.00;101937.81;6250212;22;44627;-87
2022/05/13 06:28:37;;;;;;;;;5.50;2.00;;;;;15.12;100.00;101936.22;6249959;22;45124;-87
2022/05/13 06:31:02;;;;;;;;;4.25;2.00;;;;;15.33;100.00;101933.09;6220409;22;46869;-87
2022/05/13 06:33:28;;;;;;;;;5.00;2.00;;;;;15.54;100.00;101942.34;6249417;22;44609;-87
2022/05/13 06:35:57;;;;;;;;;2.75;1.75;;;;;15.81;100.00;101939.63;6226877;22;44609;-86
2022/05/13 06:38:25;;;;;;;;;2.40;1.60;;;;;15.71;100.00;101941.19;6251764;22;44836;-87
2022/05/13 06:40:54;;;;;;;;;3.60;2.00;;;;;15.85;100.00;101938.41;6252465;22;45355;-87
2022/05/13 06:43:20;;;;;;;;;3.00;3.00;;;;;16.02;100.00;101945.28;6247863;22;44800;-87
2022/05/13 06:45:46;;;;;;;;;3.80;2.20;;;;;15.83;100.00;101943.03;6250429;22;44749;-88
2022/05/13 06:48:12;;;;;;;;;1.50;1.50;;;;;15.64;100.00;101950.63;6258023;22;44795;-88
2022/05/13 06:50:37;;;;;;;;;1.00;1.00;;;;;15.87;100.00;101949.03;6250308;22;45456;-88
2022/05/13 06:53:04;;;;;;;;;1.75;1.00;;;;;16.04;100.00;101954.06;6230792;22;45048;-88
2022/05/13 06:55:29;;;;;;;;;2.80;1.00;;;;;16.01;100.00;101956.13;6257131;22;44809;-87
2022/05/13 06:57:55;;;;;;;;;2.75;1.00;;;;;15.93;100.00;101956.66;6222733;22;44833;-88
2022/05/13 07:00:21;;;;;;;;;1.25;1.25;;;;;15.90;100.00;101955.03;6219934;22;46455;-86
2022/05/13 07:02:46;;;;;;;;;1.00;1.00;;;;;15.98;100.00;101959.84;6251205;22;44708;-86
2022/05/13 07:05:14;;;;;;;;;1.75;1.00;;;;;16.15;100.00;101966.72;6252718;22;44690;-88
2022/05/13 07:07:41;;;;;;;;;5.00;2.20;;;;;16.22;100.00;101959.09;6249475;22;45259;-88
2022/05/13 07:10:08;;;;;;;;;2.20;0.20;;;;;16.27;100.00;101965.84;6255062;22;45337;-87
2022/05/13 07:12:34;;;;;;;;;6.40;3.20;;;;;16.43;100.00;101971.81;6249034;22;45113;-86
2022/05/13 07:15:20;;;;;;;;;0.25;0.25;;;;;15.95;100.00;101962.75;6260467;22;45178;-92
2022/05/13 07:17:46;;;;;;;;;0.40;0.40;;;;;15.82;100.00;101961.91;6271545;22;44802;-89
2022/05/13 07:20:14;;;;;;;;;0.00;0.00;;;;;15.74;100.00;101972.28;6243212;22;45260;-90
2022/05/13 07:22:41;;;;;;;;;1.20;0.00;;;;;15.63;100.00;101965.84;6261530;22;44791;-90
2022/05/13 07:25:07;;;;;;;;;1.00;1.00;;;;;15.70;100.00;101962.75;6232393;22;44701;-91
2022/05/13 07:27:43;;;;;;;;;1.80;1.20;;;;;15.81;100.00;101968.19;6258417;22;44749;-91
2022/05/13 07:30:12;;;;;;;;;1.00;0.60;;;;;16.03;100.00;101960.38;6257152;22;45128;-91
2022/05/13 07:32:39;;;;;;;;;0.80;0.80;;;;;16.18;100.00;101959.31;6232055;22;44599;-92
2022/05/13 07:35:05;;;;;;;;;2.40;1.00;;;;;16.01;100.00;101956.13;6234130;22;44763;-91
2022/05/13 07:37:32;;;;;;;;;1.00;1.00;;;;;15.94;100.00;101956.53;6262592;22;44734;-92
2022/05/13 07:42:42;;;;;;;;;1.00;1.00;;;;;16.09;100.00;101959.09;6239824;22;44715;-91
2022/05/13 07:45:09;;;;;;;;;2.50;1.00;;;;;16.12;100.00;101967.78;6265316;22;44720;-92
2022/05/13 07:47:35;;;;;;;;;0.00;0.00;;;;;15.92;100.00;101968.34;6265063;22;44793;-89
2022/05/13 07:50:01;;;;;;;;;3.75;1.75;;;;;16.11;100.00;101963.41;6265110;22;46026;-92
2022/05/13 07:52:27;;;;;;;;;1.20;0.00;;;;;16.24;100.00;101962.50;6264798;22;44571;-91
2022/05/13 07:54:54;;;;;;;;;0.00;0.00;;;;;16.15;100.00;101967.59;6234204;22;45187;-91
2022/05/13 07:57:20;;;;;;;;;1.40;0.40;;;;;16.30;100.00;101964.78;6201088;22;44790;-91
2022/05/13 08:02:36;;;;;;;;;2.20;2.20;;;;;16.49;100.00;101967.84;6243297;22;44619;-92
2022/05/13 08:05:01;;;;;;;;;1.80;1.80;;;;;16.51;100.00;101967.72;6270434;22;44624;-89
2022/05/13 08:07:28;;;;;;;;;2.75;2.00;;;;;16.54;100.00;101962.16;6269557;22;44920;-89
2022/05/13 08:09:53;;;;;;;;;0.80;0.80;;;;;16.53;100.00;101961.28;6266460;22;46040;-90
2022/05/13 08:12:20;;;;;;;;;1.00;1.00;;;;;16.62;97.20;101967.81;6264550;22;44753;-92
2022/05/13 08:14:46;;;;;;;;;0.00;0.00;;;;;16.87;98.02;101958.84;6231839;22;44706;-91
2022/05/13 08:17:17;;;;;;;;;1.00;1.00;;;;;16.95;93.18;101972.56;6225676;22;44928;-90
2022/05/13 08:19:43;;;;;;;;;1.00;1.00;;;;;17.05;92.10;101970.03;6254392;22;45459;-91
2022/05/13 08:22:13;;;;;;;;;1.50;1.50;;;;;17.08;89.85;101967.16;6257048;22;45136;-91
2022/05/13 08:24:38;;;;;;;;;0.60;0.60;;;;;16.70;90.94;101966.28;6261393;22;44797;-90
2022/05/13 08:27:05;;;;;;;;;0.50;0.50;;;;;16.84;88.63;101975.19;6230444;22;45174;-91
2022/05/13 08:29:32;;;;;;;;;4.60;1.00;;;;;16.98;89.50;101963.44;6229611;22;45468;-90
2022/05/13 08:31:59;;;;;;;;;0.00;0.00;;;;;16.90;89.59;101970.22;6227622;22;44642;-90
2022/05/13 08:34:24;;;;;;;;;1.00;1.00;;;;;17.05;90.64;101968.22;6230797;22;45114;-92
2022/05/13 08:36:50;;;;;;;;;1.00;1.00;;;;;16.99;90.01;101960.63;6256573;22;45326;-92
2022/05/13 08:39:18;;;;;;;;;0.00;0.00;;;;;17.13;89.97;101967.66;6203731;22;45189;-91
2022/05/13 08:42:14;;;;;;;;;2.00;0.80;;;;;16.79;92.54;101967.47;6261989;22;44588;-92
2022/05/13 08:44:41;;;;;;;;;0.80;0.80;;;;;17.05;91.07;101968.22;6263531;22;45165;-90
2022/05/13 08:47:26;;;;;;;;;2.00;0.60;;;;;17.26;91.00;101968.44;6238117;22;44888;-92
2022/05/13 08:53:08;;;;;;;;;2.40;1.00;;;;;17.61;90.36;101979.19;6284291;22;44746;-90
2022/05/13 08:55:45;;;;;;;;;3.20;1.00;;;;;17.33;91.85;101977.75;6293757;22;44641;-91
2022/05/13 08:58:37;;;;;;;;;3.80;2.00;;;;;17.37;91.24;101975.69;6302361;22;44705;-91
2022/05/13 09:01:09;;;;;;;;;1.20;1.20;;;;;17.25;91.65;101955.13;6179152;23;45095;-90
2022/05/13 09:03:34;;;;;;;;;4.00;1.00;;;;;17.21;93.39;101973.28;6180456;23;44752;-88
2022/05/13 09:06:40;;;;;;;;;1.00;1.00;;;;;17.33;90.15;101968.84;6177418;23;45315;-90
2022/05/13 09:09:10;;;;;;;;;1.80;1.00;;;;;17.50;91.43;101971.06;6165851;23;44796;-86
2022/05/13 09:12:00;;;;;;;;;3.00;1.80;;;;;17.39;93.56;101958.47;6164500;23;45461;-87
2022/05/13 09:14:38;;;;;;;;;0.20;0.00;;;;;17.57;85.72;101966.09;6138888;23;45340;-89
2022/05/13 09:17:13;;;;;;;;;1.00;1.00;;;;;17.77;89.78;101967.28;6168857;23;44600;-86
2022/05/13 09:20:06;;;;;;;;;1.00;1.00;;;;;17.72;86.20;101970.28;6166808;23;44782;-86
2022/05/13 09:22:38;;;;;;;;;2.60;0.00;;;;;17.48;79.48;101967.66;6153278;23;47042;-86
2022/05/13 09:25:05;;;;;;;;;0.00;0.00;;;;;17.42;76.33;101968.13;6164358;23;45205;-85
2022/05/13 09:27:49;;;;;;;;;0.00;0.00;;;;;17.34;78.17;101973.22;6160211;23;45302;-87
2022/05/13 09:30:21;;;;;;;;;0.00;0.00;;;;;17.58;80.05;101976.72;6163970;23;45578;-86
2022/05/13 09:32:47;;;;;;;;;0.00;0.00;;;;;17.48;79.30;101976.56;6161731;23;46739;-86
2022/05/13 09:35:30;;;;;;;;;4.00;0.20;;;;;17.48;78.97;101970.34;6161773;23;44703;-86
2022/05/13 09:37:56;;;;;;;;;0.00;0.00;;;;;17.61;76.71;101971.13;6217272;22;44585;-86
2022/05/13 09:40:25;;;;;;;;;2.00;0.00;;;;;17.69;76.73;101970.53;6257957;22;44845;-86
2022/05/13 09:42:54;;;;;;;;;1.00;0.00;;;;;17.67;75.92;101972.47;6257898;22;45376;-85
2022/05/13 09:45:21;;;;;;;;;2.00;2.00;;;;;17.87;77.32;101970.97;6284241;22;45167;-86
2022/05/13 09:48:04;;;;;;;;;1.00;1.00;;;;;18.12;79.61;101964.50;6253622;22;44776;-85
2022/05/13 09:50:33;;;;;;;;;2.80;1.20;;;;;17.65;77.92;101974.44;6254732;22;44759;-88
2022/05/13 09:53:26;;;;;;;;;0.00;0.00;;;;;17.72;79.27;101971.16;6253678;22;45362;-86
2022/05/13 09:55:57;;;;;;;;;1.00;1.00;;;;;17.91;77.56;101959.84;6256535;22;45236;-87
2022/05/13 09:58:38;;;;;;;;;1.00;1.00;;;;;17.77;75.77;101965.44;6254454;22;44771;-86
2022/05/13 10:01:11;;;;;;;;;2.00;2.00;;;;;17.78;78.54;101956.41;6223069;22;44757;-85
2022/05/13 10:20:49;;;;;;;;;0.00;0.00;;;;;17.79;74.13;101966.16;6047398;23;45045;-90
2022/05/13 10:23:22;;;;;;;;;1.00;1.00;;;;;17.86;75.16;101953.13;6027301;23;44980;-92
2022/05/13 10:26:17;;;;;;;;;0.00;0.00;;;;;18.28;71.07;101958.78;6054536;23;44876;-89
2022/05/13 10:29:19;;;;;;;;;3.00;3.00;;;;;18.43;70.71;101957.56;6053233;23;45119;-87
2022/05/13 10:31:49;;;;;;;;;1.00;1.00;;;;;18.61;71.24;101953.34;6060348;23;44789;-88
2022/05/13 10:34:53;;;;;;;;;2.00;1.00;;;;;18.95;73.00;101950.59;6062427;23;44572;-88
2022/05/13 11:45:10;;;;;;;;;;;;;;;;;;;;;
2022/05/13 11:55:41;;;;;;;;;3.00;3.00;;;;;19.73;66.46;101908.97;5973642;23;44948;-91
2022/05/13 11:58:51;;;;;;;;;4.60;1.60;;;;;19.85;66.23;101896.25;5961721;23;44888;-92
2022/05/13 12:19:19;;;;;;;;;;;;;;;;;;;;;
2022/05/13 12:33:05;;;;;;;;;0.40;0.40;;;;;20.64;58.86;101878.31;5867858;24;44861;-90
2022/05/13 12:39:21;;;;;;;;;1.00;1.00;;;;;20.48;59.11;101870.78;5957320;23;44796;-89
2022/05/13 13:08:19;;;;;;;;;1.00;1.00;;;;;22.61;50.82;101833.34;6322837;22;45170;-91
2022/05/13 13:10:50;;;;;;;;;0.80;0.00;;;;;23.19;50.17;101824.72;6322645;22;44645;-90
2022/05/13 13:13:37;;;;;;;;;1.00;1.00;;;;;22.95;43.59;101842.50;6334971;22;44737;-92
2022/05/13 13:26:38;;;;;;;;;1.00;1.00;;;;;23.50;44.26;101838.66;6320637;22;44815;-90
2022/05/13 13:29:07;;;;;;;;;1.00;1.00;;;;;23.91;43.68;101837.03;6291623;22;44814;-91
2022/05/13 13:35:03;;;;;;;;;2.20;2.20;;;;;24.16;43.69;101831.69;6324036;22;44776;-91
2022/05/13 14:01:44;;;;;;;;;3.60;1.80;;;;;23.47;43.57;101828.97;6098829;23;44830;-91
2022/05/13 14:07:58;;;;;;;;;0.40;0.20;;;;;25.21;44.19;101802.97;6095591;23;45422;-90
2022/05/13 14:10:33;;;;;;;;;1.60;1.60;;;;;25.55;39.81;101819.03;6056643;23;45406;-93
2022/05/13 14:29:58;;;;;;;;;3.00;1.80;;;;;24.80;38.34;101817.41;6024713;23;44803;-93
2022/05/13 14:32:42;;;;;;;;;1.00;1.00;;;;;24.28;40.26;101801.34;6025953;23;44772;-93
2022/05/13 14:35:19;;;;;;;;;3.80;1.80;;;;;24.46;40.66;101793.09;6025081;23;45231;-93
2022/05/13 14:38:11;;;;;;;;;1.60;1.00;;;;;25.19;39.88;101796.84;6023425;23;44666;-91
2022/05/13 14:40:49;;;;;;;;;1.20;0.20;;;;;25.64;38.79;101801.66;6013426;23;44642;-92
2022/05/13 14:43:30;;;;;;;;;1.60;0.60;;;;;25.40;36.82;101808.03;6020996;23;44878;-93
2022/05/13 14:49:55;;;;;;;;;0.40;0.40;;;;;25.26;36.43;101787.81;6021285;23;44784;-92
2022/05/13 14:52:38;;;;;;;;;3.40;1.00;;;;;25.97;35.14;101791.53;6017175;23;44846;-92
2022/05/13 14:55:43;;;;;;;;;1.00;1.00;;;;;25.98;34.98;101792.38;6081370;23;44831;-92
2022/05/13 14:58:49;;;;;;;;;3.00;0.00;;;;;25.84;35.90;101785.78;6049806;23;45007;-92
2022/05/13 15:01:41;;;;;;;;;1.00;1.00;;;;;26.58;36.99;101783.47;6026792;23;44788;-91
2022/05/13 15:04:26;;;;;;;;;1.20;1.20;;;;;26.85;34.95;101784.81;6035842;23;44743;-90
2022/05/13 15:07:05;;;;;;;;;2.00;0.20;;;;;26.52;36.82;101782.34;6058557;23;44758;-92
2022/05/13 15:10:03;;;;;;;;;0.80;0.80;;;;;26.43;35.57;101785.31;6081435;23;45174;-92
2022/05/13 15:12:39;;;;;;;;;1.00;1.00;;;;;26.16;36.00;101787.50;6090467;23;44711;-92
2022/05/13 15:21:47;;;;;;;;;3.00;2.00;;;;;25.88;35.95;101768.91;6063520;23;44793;-93
2022/05/13 15:27:45;;;;;;;;;1.00;1.00;;;;;25.66;36.25;101787.88;6059178;23;44701;-92
2022/05/13 15:30:15;;;;;;;;;0.60;0.60;;;;;25.44;36.91;101778.59;6147172;23;44883;-93
2022/05/13 15:32:41;;;;;;;;;0.60;0.60;;;;;26.05;36.89;101768.81;6121771;23;45071;-92
2022/05/13 15:35:15;;;;;;;;;0.75;0.50;;;;;26.46;35.11;101776.78;6163563;23;44712;-93
2022/05/13 15:37:47;;;;;;;;;0.00;0.00;;;;;27.27;34.26;101772.47;6163540;23;44640;-91
2022/05/13 15:40:15;;;;;;;;;2.00;1.00;;;;;27.77;33.34;101763.53;6149624;23;44827;-91
2022/05/13 15:42:57;;;;;;;;;1.20;0.40;;;;;28.14;33.07;101767.09;6157189;23;45073;-92
2022/05/13 15:45:29;;;;;;;;;1.00;1.00;;;;;27.94;32.01;101775.06;6130402;23;44620;-93
2022/05/13 15:48:18;;;;;;;;;1.00;1.00;;;;;28.02;32.45;101772.25;6168729;23;44708;-93
2022/05/13 15:56:53;;;;;;;;;1.00;1.00;;;;;28.46;31.43;101774.00;6257980;22;44632;-92
2022/05/13 15:59:19;;;;;;;;;0.00;0.00;;;;;27.73;32.85;101764.09;6228992;22;44844;-94
2022/05/13 16:01:51;;;;;;;;;1.00;0.40;;;;;27.58;33.06;101764.94;6242003;22;44821;-92
2022/05/13 16:04:53;;;;;;;;;2.00;0.00;;;;;28.09;32.88;101775.91;6241590;22;44963;-92
2022/05/13 16:07:36;;;;;;;;;2.00;1.00;;;;;27.32;32.73;101761.81;6235294;22;44871;-92